createdAt,value
2022-08-23T00:00:31.817Z,16.35
2022-08-23T00:01:31.795Z,16.36
2022-08-23T00:02:31.795Z,16.36
2022-08-23T00:03:31.760Z,16.38
2022-08-23T00:04:34.715Z,16.36
2022-08-23T00:05:31.749Z,16.38
2022-08-23T00:06:31.723Z,16.38
2022-08-23T00:07:35.173Z,16.39
2022-08-23T00:08:32.720Z,16.39
2022-08-23T00:09:31.766Z,16.42
2022-08-23T00:10:31.685Z,16.42
2022-08-23T00:11:31.668Z,16.42
2022-08-23T00:12:31.690Z,16.42
2022-08-23T00:13:48.005Z,16.42
2022-08-23T00:14:32.707Z,16.43
2022-08-23T00:15:31.631Z,16.42
2022-08-23T00:16:31.623Z,16.43
2022-08-23T00:17:34.691Z,16.43
2022-08-23T00:18:31.592Z,16.46
2022-08-23T00:19:31.620Z,16.46
2022-08-23T00:20:31.572Z,16.47
2022-08-23T00:21:31.563Z,16.47
2022-08-23T00:22:31.561Z,16.47
2022-08-23T00:23:31.534Z,16.49
2022-08-23T00:24:31.577Z,16.50
2022-08-23T00:25:31.514Z,16.50
2022-08-23T00:26:31.484Z,16.50
2022-08-23T00:27:31.478Z,16.51
2022-08-23T00:28:31.507Z,16.53
2022-08-23T00:29:31.502Z,16.56
2022-08-23T00:30:31.458Z,16.56
2022-08-23T00:31:31.480Z,16.56
2022-08-23T00:32:31.456Z,16.56
2022-08-23T00:33:31.421Z,16.57
2022-08-23T00:34:31.476Z,16.57
2022-08-23T00:35:31.413Z,16.58
2022-08-23T00:36:31.405Z,16.58
2022-08-23T00:37:31.379Z,16.58
2022-08-23T00:38:34.537Z,16.60
2022-08-23T00:39:31.400Z,16.60
2022-08-23T00:40:31.357Z,16.60
2022-08-23T00:41:31.343Z,16.61
2022-08-23T00:42:31.341Z,16.65
2022-08-23T00:43:31.307Z,16.61
2022-08-23T00:44:31.353Z,16.65
2022-08-23T00:45:31.291Z,16.64
2022-08-23T00:46:31.270Z,16.64
2022-08-23T00:47:31.267Z,16.65
2022-08-23T00:48:31.256Z,16.65
2022-08-23T00:49:31.287Z,16.65
2022-08-23T00:50:31.237Z,16.66
2022-08-23T00:51:31.231Z,16.66
2022-08-23T00:52:32.206Z,16.68
2022-08-23T00:53:31.190Z,16.69
2022-08-23T00:54:31.222Z,16.69
2022-08-23T00:55:31.145Z,16.71
2022-08-23T00:56:31.155Z,16.69
2022-08-23T00:57:31.126Z,16.69
2022-08-23T00:58:31.143Z,16.69
2022-08-23T00:59:31.188Z,16.69
2022-08-23T01:00:31.137Z,16.69
2022-08-23T01:01:31.147Z,16.71
2022-08-23T01:02:31.087Z,16.72
2022-08-23T01:03:38.390Z,16.74
2022-08-23T01:04:32.157Z,16.72
2022-08-23T01:05:31.069Z,16.72
2022-08-23T01:06:31.060Z,16.74
2022-08-23T01:07:31.071Z,16.72
2022-08-23T01:08:31.039Z,16.74
2022-08-23T01:09:31.062Z,16.75
2022-08-23T01:10:31.009Z,16.74
2022-08-23T01:11:31.006Z,16.76
2022-08-23T01:12:32.504Z,16.75
2022-08-23T01:13:30.959Z,16.75
2022-08-23T01:14:30.996Z,16.76
2022-08-23T01:15:30.943Z,16.75
2022-08-23T01:16:30.955Z,16.78
2022-08-23T01:17:30.944Z,16.79
2022-08-23T01:18:30.940Z,16.78
2022-08-23T01:19:31.647Z,16.79
2022-08-23T01:20:30.894Z,16.81
2022-08-23T01:21:30.885Z,16.79
2022-08-23T01:22:30.868Z,16.81
2022-08-23T01:23:30.863Z,16.83
2022-08-23T01:24:42.593Z,16.83
2022-08-23T01:25:31.846Z,16.83
2022-08-23T01:26:30.821Z,16.84
2022-08-23T01:27:31.464Z,16.83
2022-08-23T01:28:30.818Z,16.84
2022-08-23T01:29:30.869Z,16.84
2022-08-23T01:30:30.798Z,16.87
2022-08-23T01:31:30.769Z,16.89
2022-08-23T01:32:30.751Z,16.89
2022-08-23T01:33:30.738Z,16.90
2022-08-23T01:34:30.777Z,16.91
2022-08-23T01:35:30.732Z,16.91
2022-08-23T01:36:30.699Z,16.91
2022-08-23T01:37:30.702Z,16.94
2022-08-23T01:38:32.888Z,16.96
2022-08-23T01:39:30.717Z,16.97
2022-08-23T01:40:30.674Z,16.97
2022-08-23T01:41:30.675Z,16.97
2022-08-23T01:42:30.656Z,16.97
2022-08-23T01:43:30.636Z,17.01
2022-08-23T01:44:30.668Z,17.04
2022-08-23T01:45:30.599Z,17.04
2022-08-23T01:46:30.619Z,17.04
2022-08-23T01:47:30.606Z,17.05
2022-08-23T01:48:30.589Z,17.06
2022-08-23T01:49:30.629Z,17.04
2022-08-23T01:50:30.608Z,17.06
2022-08-23T01:51:30.546Z,17.06
2022-08-23T01:52:30.542Z,17.06
2022-08-23T01:53:30.534Z,17.09
2022-08-23T01:54:30.545Z,17.09
2022-08-23T01:55:30.487Z,17.11
2022-08-23T01:56:39.245Z,17.14
2022-08-23T01:57:31.454Z,17.12
2022-08-23T01:58:30.498Z,17.14
2022-08-23T01:59:30.519Z,17.11
2022-08-23T02:00:30.454Z,17.12
2022-08-23T02:01:30.446Z,17.14
2022-08-23T02:02:30.426Z,17.14
2022-08-23T02:03:30.402Z,17.16
2022-08-23T02:04:30.478Z,17.15
2022-08-23T02:05:30.411Z,17.19
2022-08-23T02:06:30.365Z,17.16
2022-08-23T02:07:30.373Z,17.16
2022-08-23T02:08:30.367Z,17.19
2022-08-23T02:09:30.403Z,17.19
2022-08-23T02:10:30.324Z,17.16
2022-08-23T02:11:30.328Z,17.19
2022-08-23T02:12:30.304Z,17.19
2022-08-23T02:13:30.323Z,17.19
2022-08-23T02:14:30.363Z,17.20
2022-08-23T02:15:30.290Z,17.19
2022-08-23T02:16:30.272Z,17.20
2022-08-23T02:17:30.273Z,17.20
2022-08-23T02:18:30.254Z,17.20
2022-08-23T02:19:30.299Z,17.20
2022-08-23T02:20:30.248Z,17.20
2022-08-23T02:21:30.215Z,17.20
2022-08-23T02:22:30.211Z,17.20
2022-08-23T02:23:30.185Z,17.19
2022-08-23T02:24:30.213Z,17.22
2022-08-23T02:25:30.154Z,17.20
2022-08-23T02:26:31.080Z,17.23
2022-08-23T02:27:30.162Z,17.22
2022-08-23T02:28:30.140Z,17.22
2022-08-23T02:29:30.172Z,17.20
2022-08-23T02:30:30.135Z,17.22
2022-08-23T02:31:30.125Z,17.22
2022-08-23T02:32:30.103Z,17.23
2022-08-23T02:33:30.097Z,17.23
2022-08-23T02:34:44.945Z,17.23
2022-08-23T02:35:31.126Z,17.23
2022-08-23T02:36:30.102Z,17.22
2022-08-23T02:37:30.096Z,17.24
2022-08-23T02:38:30.090Z,17.23
2022-08-23T02:39:30.144Z,17.23
2022-08-23T02:40:30.063Z,17.24
2022-08-23T02:41:30.057Z,17.24
2022-08-23T02:42:30.058Z,17.24
2022-08-23T02:43:30.051Z,17.26
2022-08-23T02:44:30.066Z,17.26
2022-08-23T02:45:30.012Z,17.24
2022-08-23T02:46:30.014Z,17.27
2022-08-23T02:47:30.006Z,17.29
2022-08-23T02:48:29.987Z,17.30
2022-08-23T02:49:30.009Z,17.27
2022-08-23T02:50:29.961Z,17.29
2022-08-23T02:51:29.955Z,17.29
2022-08-23T02:52:29.928Z,17.30
2022-08-23T02:53:29.921Z,17.30
2022-08-23T02:54:29.954Z,17.29
2022-08-23T02:55:29.884Z,17.30
2022-08-23T02:56:29.883Z,17.30
2022-08-23T02:57:29.905Z,17.30
2022-08-23T02:58:29.875Z,17.30
2022-08-23T02:59:29.909Z,17.33
2022-08-23T03:00:29.856Z,17.33
2022-08-23T03:01:29.843Z,17.34
2022-08-23T03:02:29.907Z,17.33
2022-08-23T03:03:29.805Z,17.31
2022-08-23T03:04:29.835Z,17.33
2022-08-23T03:05:29.796Z,17.33
2022-08-23T03:06:29.794Z,17.33
2022-08-23T03:07:29.770Z,17.34
2022-08-23T03:08:29.742Z,17.34
2022-08-23T03:09:29.772Z,17.34
2022-08-23T03:10:29.740Z,17.34
2022-08-23T03:11:29.722Z,17.36
2022-08-23T03:12:29.722Z,17.36
2022-08-23T03:13:29.679Z,17.36
2022-08-23T03:14:29.769Z,17.36
2022-08-23T03:15:29.674Z,17.36
2022-08-23T03:16:29.682Z,17.34
2022-08-23T03:17:29.650Z,17.34
2022-08-23T03:18:29.650Z,17.34
2022-08-23T03:19:29.618Z,17.34
2022-08-23T03:20:29.650Z,17.36
2022-08-23T03:21:29.596Z,17.33
2022-08-23T03:22:29.601Z,17.34
2022-08-23T03:23:29.573Z,17.34
2022-08-23T03:24:29.555Z,17.34
2022-08-23T03:25:29.580Z,17.34
2022-08-23T03:26:29.561Z,17.33
2022-08-23T03:27:29.534Z,17.33
2022-08-23T03:28:29.559Z,17.31
2022-08-23T03:29:29.528Z,17.31
2022-08-23T03:30:29.501Z,17.29
2022-08-23T03:31:29.436Z,17.29
2022-08-23T03:32:29.435Z,17.26
2022-08-23T03:33:29.425Z,17.26
2022-08-23T03:34:29.407Z,17.26
2022-08-23T03:35:29.443Z,17.24
2022-08-23T03:36:29.437Z,17.27
2022-08-23T03:37:29.419Z,17.27
2022-08-23T03:38:29.361Z,17.24
2022-08-23T03:39:29.352Z,17.26
2022-08-23T03:40:29.393Z,17.23
2022-08-23T03:41:29.336Z,17.23
2022-08-23T03:42:31.260Z,17.23
2022-08-23T03:43:29.285Z,17.24
2022-08-23T03:44:29.292Z,17.23
2022-08-23T03:45:29.323Z,17.24
2022-08-23T03:46:33.788Z,17.26
2022-08-23T03:47:30.258Z,17.26
2022-08-23T03:48:29.345Z,17.27
2022-08-23T03:49:29.239Z,17.26
2022-08-23T03:50:29.256Z,17.26
2022-08-23T03:51:29.223Z,17.27
2022-08-23T03:52:29.182Z,17.29
2022-08-23T03:53:29.176Z,17.29
2022-08-23T03:54:29.174Z,17.29
2022-08-23T03:55:29.190Z,17.29
2022-08-23T03:56:29.155Z,17.29
2022-08-23T03:57:29.173Z,17.27
2022-08-23T03:58:29.132Z,17.27
2022-08-23T03:59:29.145Z,17.27
2022-08-23T04:00:29.144Z,17.27
2022-08-23T04:01:29.162Z,17.27
2022-08-23T04:02:29.088Z,17.26
2022-08-23T04:03:29.071Z,17.26
2022-08-23T04:04:29.070Z,17.27
2022-08-23T04:05:29.114Z,17.27
2022-08-23T04:06:29.030Z,17.27
2022-08-23T04:07:29.052Z,17.30
2022-08-23T04:08:33.450Z,17.30
2022-08-23T04:09:29.020Z,17.31
2022-08-23T04:10:29.041Z,17.30
2022-08-23T04:11:29.003Z,17.29
2022-08-23T04:12:28.966Z,17.30
2022-08-23T04:13:28.967Z,17.30
2022-08-23T04:14:28.953Z,17.31
2022-08-23T04:15:28.993Z,17.30
2022-08-23T04:16:28.928Z,17.30
2022-08-23T04:17:32.147Z,17.33
2022-08-23T04:18:28.901Z,17.33
2022-08-23T04:19:28.892Z,17.33
2022-08-23T04:20:28.933Z,17.36
2022-08-23T04:21:28.885Z,17.36
2022-08-23T04:22:28.854Z,17.39
2022-08-23T04:23:28.839Z,17.39
2022-08-23T04:24:28.821Z,17.39
2022-08-23T04:25:34.382Z,17.41
2022-08-23T04:26:30.403Z,17.41
2022-08-23T04:27:28.791Z,17.39
2022-08-23T04:28:28.781Z,17.41
2022-08-23T04:29:34.035Z,17.44
2022-08-23T04:30:29.823Z,17.44
2022-08-23T04:31:28.761Z,17.45
2022-08-23T04:32:29.750Z,17.45
2022-08-23T04:33:28.736Z,17.45
2022-08-23T04:34:28.857Z,17.48
2022-08-23T04:35:28.781Z,17.49
2022-08-23T04:36:28.686Z,17.48
2022-08-23T04:37:29.720Z,17.49
2022-08-23T04:38:28.669Z,17.48
2022-08-23T04:39:28.678Z,17.51
2022-08-23T04:40:28.779Z,17.51
2022-08-23T04:41:28.644Z,17.49
2022-08-23T04:42:28.629Z,17.52
2022-08-23T04:43:28.650Z,17.51
2022-08-23T04:44:28.619Z,17.51
2022-08-23T04:45:28.676Z,17.51
2022-08-23T04:46:28.566Z,17.52
2022-08-23T04:47:28.571Z,17.54
2022-08-23T04:48:28.884Z,17.52
2022-08-23T04:49:28.567Z,17.51
2022-08-23T04:50:28.630Z,17.54
2022-08-23T04:51:28.512Z,17.52
2022-08-23T04:52:28.507Z,17.54
2022-08-23T04:53:28.491Z,17.52
2022-08-23T04:54:28.459Z,17.54
2022-08-23T04:55:28.519Z,17.52
2022-08-23T04:56:28.454Z,17.51
2022-08-23T04:57:28.467Z,17.52
2022-08-23T04:58:28.433Z,17.51
2022-08-23T04:59:28.451Z,17.52
2022-08-23T05:00:28.538Z,17.52
2022-08-23T05:01:28.444Z,17.54
2022-08-23T05:02:28.399Z,17.56
2022-08-23T05:03:28.381Z,17.54
2022-08-23T05:04:28.360Z,17.54
2022-08-23T05:05:28.393Z,17.52
2022-08-23T05:06:28.338Z,17.54
2022-08-23T05:07:40.058Z,17.56
2022-08-23T05:08:29.332Z,17.56
2022-08-23T05:09:28.347Z,17.54
2022-08-23T05:10:28.348Z,17.54
2022-08-23T05:11:28.296Z,17.54
2022-08-23T05:12:28.283Z,17.56
2022-08-23T05:13:28.271Z,17.56
2022-08-23T05:14:28.252Z,17.57
2022-08-23T05:15:28.303Z,17.56
2022-08-23T05:16:28.224Z,17.56
2022-08-23T05:17:28.209Z,17.56
2022-08-23T05:18:28.202Z,17.57
2022-08-23T05:19:28.210Z,17.56
2022-08-23T05:20:28.221Z,17.59
2022-08-23T05:21:28.152Z,17.59
2022-08-23T05:22:28.142Z,17.63
2022-08-23T05:23:31.847Z,17.63
2022-08-23T05:24:28.139Z,17.63
2022-08-23T05:25:28.169Z,17.60
2022-08-23T05:26:28.101Z,17.63
2022-08-23T05:27:28.086Z,17.63
2022-08-23T05:28:28.431Z,17.65
2022-08-23T05:29:28.094Z,17.67
2022-08-23T05:30:28.115Z,17.67
2022-08-23T05:31:28.090Z,17.68
2022-08-23T05:32:31.620Z,17.67
2022-08-23T05:33:29.017Z,17.68
2022-08-23T05:34:28.013Z,17.67
2022-08-23T05:35:28.049Z,17.68
2022-08-23T05:36:27.992Z,17.68
2022-08-23T05:37:27.972Z,17.70
2022-08-23T05:38:27.941Z,17.71
2022-08-23T05:39:36.577Z,17.72
2022-08-23T05:40:28.987Z,17.74
2022-08-23T05:41:38.244Z,17.72
2022-08-23T05:42:28.915Z,17.78
2022-08-23T05:43:27.898Z,17.79
2022-08-23T05:44:27.922Z,17.80
2022-08-23T05:45:27.933Z,17.82
2022-08-23T05:46:28.534Z,17.80
2022-08-23T05:47:27.856Z,17.85
2022-08-23T05:48:27.831Z,17.86
2022-08-23T05:49:27.832Z,17.87
2022-08-23T05:50:27.842Z,17.90
2022-08-23T05:51:27.785Z,17.89
2022-08-23T05:52:27.772Z,17.89
2022-08-23T05:53:27.781Z,17.90
2022-08-23T05:54:27.783Z,17.95
2022-08-23T05:55:34.989Z,17.95
2022-08-23T05:56:28.750Z,17.98
2022-08-23T05:57:27.741Z,18.01
2022-08-23T05:58:27.745Z,18.03
2022-08-23T05:59:27.707Z,18.05
2022-08-23T06:00:31.630Z,18.03
2022-08-23T06:01:28.730Z,17.98
2022-08-23T06:02:27.659Z,18.03
2022-08-23T06:03:27.665Z,18.07
2022-08-23T06:04:27.652Z,18.08
2022-08-23T06:05:27.697Z,18.07
2022-08-23T06:06:36.869Z,18.11
2022-08-23T06:07:28.640Z,18.16
2022-08-23T06:08:27.625Z,18.22
2022-08-23T06:09:27.617Z,18.23
2022-08-23T06:10:27.686Z,18.29
2022-08-23T06:11:27.586Z,18.28
2022-08-23T06:12:27.613Z,18.26
2022-08-23T06:13:27.564Z,18.29
2022-08-23T06:14:27.604Z,18.33
2022-08-23T06:15:27.596Z,18.35
2022-08-23T06:16:27.537Z,18.38
2022-08-23T06:17:27.527Z,18.45
2022-08-23T06:18:27.506Z,18.49
2022-08-23T06:19:27.477Z,18.47
2022-08-23T06:20:27.582Z,18.50
2022-08-23T06:21:27.436Z,18.60
2022-08-23T06:22:27.433Z,18.68
2022-08-23T06:23:27.422Z,18.78
2022-08-23T06:24:27.456Z,18.86
2022-08-23T06:25:27.476Z,18.89
2022-08-23T06:26:27.442Z,18.99
2022-08-23T06:27:27.385Z,19.00
2022-08-23T06:28:27.447Z,18.99
2022-08-23T06:29:27.437Z,19.11
2022-08-23T06:30:27.529Z,19.08
2022-08-23T06:31:27.416Z,19.14
2022-08-23T06:32:28.399Z,19.24
2022-08-23T06:33:27.418Z,19.29
2022-08-23T06:34:27.322Z,19.33
2022-08-23T06:35:37.977Z,19.37
2022-08-23T06:36:28.332Z,19.37
2022-08-23T06:37:27.292Z,19.36
2022-08-23T06:38:27.639Z,19.44
2022-08-23T06:39:27.265Z,19.48
2022-08-23T06:40:27.381Z,19.49
2022-08-23T06:41:27.237Z,19.44
2022-08-23T06:42:42.519Z,19.44
2022-08-23T06:43:28.221Z,19.44
2022-08-23T06:44:27.207Z,19.52
2022-08-23T06:45:33.758Z,19.58
2022-08-23T06:46:28.376Z,19.56
2022-08-23T06:47:27.149Z,19.56
2022-08-23T06:48:27.135Z,19.52
2022-08-23T06:49:27.124Z,19.59
2022-08-23T06:50:27.168Z,19.66
2022-08-23T06:51:28.100Z,19.71
2022-08-23T06:52:27.104Z,19.74
2022-08-23T06:53:27.089Z,19.77
2022-08-23T06:54:27.088Z,19.82
2022-08-23T06:55:27.145Z,19.84
2022-08-23T06:56:27.102Z,19.88
2022-08-23T06:57:27.057Z,19.86
2022-08-23T06:58:27.078Z,19.88
2022-08-23T06:59:27.059Z,19.82
2022-08-23T07:00:27.103Z,19.88
2022-08-23T07:01:44.643Z,19.74
2022-08-23T07:02:28.072Z,19.74
2022-08-23T07:03:27.001Z,19.82
2022-08-23T07:04:26.978Z,19.67
2022-08-23T07:05:27.051Z,19.55
2022-08-23T07:06:26.956Z,19.66
2022-08-23T07:07:41.218Z,19.85
2022-08-23T07:08:27.940Z,19.95
2022-08-23T07:09:26.927Z,19.95
2022-08-23T07:10:26.949Z,19.91
2022-08-23T07:11:26.897Z,19.94
2022-08-23T07:12:26.871Z,19.96
2022-08-23T07:13:26.860Z,20.00
2022-08-23T07:14:26.867Z,20.02
2022-08-23T07:15:26.875Z,20.14
2022-08-23T07:16:26.895Z,20.11
2022-08-23T07:17:26.834Z,20.16
2022-08-23T07:18:26.796Z,20.10
2022-08-23T07:19:29.185Z,20.06
2022-08-23T07:20:26.822Z,19.92
2022-08-23T07:21:26.779Z,19.85
2022-08-23T07:22:26.783Z,19.82
2022-08-23T07:23:26.755Z,19.82
2022-08-23T07:24:30.774Z,19.91
2022-08-23T07:25:27.760Z,19.85
2022-08-23T07:26:26.703Z,19.91
2022-08-23T07:27:26.707Z,20.04
2022-08-23T07:28:26.697Z,20.19
2022-08-23T07:29:26.695Z,20.18
2022-08-23T07:30:26.704Z,20.21
2022-08-23T07:31:26.733Z,20.24
2022-08-23T07:32:26.675Z,20.16
2022-08-23T07:33:26.636Z,20.22
2022-08-23T07:34:26.648Z,20.40
2022-08-23T07:35:26.698Z,20.41
2022-08-23T07:36:27.932Z,20.52
2022-08-23T07:37:26.594Z,20.51
2022-08-23T07:38:30.528Z,20.56
2022-08-23T07:39:26.594Z,20.63
2022-08-23T07:40:27.766Z,20.80
2022-08-23T07:41:26.561Z,20.78
2022-08-23T07:42:26.544Z,20.87
2022-08-23T07:43:26.540Z,20.74
2022-08-23T07:44:27.360Z,20.84
2022-08-23T07:45:26.574Z,20.96
2022-08-23T07:46:26.549Z,20.87
2022-08-23T07:47:26.470Z,20.90
2022-08-23T07:48:43.560Z,20.92
2022-08-23T07:49:29.272Z,20.95
2022-08-23T07:50:30.368Z,21.00
2022-08-23T07:51:26.450Z,21.00
2022-08-23T07:52:26.448Z,21.06
2022-08-23T07:53:31.812Z,21.15
2022-08-23T07:54:27.442Z,21.05
2022-08-23T07:55:26.426Z,20.99
2022-08-23T07:56:26.387Z,21.03
2022-08-23T07:57:26.380Z,21.11
2022-08-23T07:58:26.368Z,21.07
2022-08-23T07:59:26.368Z,21.06
2022-08-23T08:00:26.396Z,21.00
2022-08-23T08:01:26.333Z,20.96
2022-08-23T08:02:26.361Z,20.87
2022-08-23T08:03:26.315Z,20.88
2022-08-23T08:04:26.282Z,21.02
2022-08-23T08:05:26.329Z,20.99
2022-08-23T08:06:26.281Z,21.02
2022-08-23T08:07:26.266Z,21.03
2022-08-23T08:08:26.274Z,20.95
2022-08-23T08:09:26.243Z,20.93
2022-08-23T08:10:26.246Z,20.97
2022-08-23T08:11:29.593Z,21.03
2022-08-23T08:12:27.191Z,21.02
2022-08-23T08:13:26.198Z,21.11
2022-08-23T08:14:26.173Z,21.21
2022-08-23T08:15:26.217Z,21.39
2022-08-23T08:16:26.209Z,21.48
2022-08-23T08:17:27.604Z,21.57
2022-08-23T08:18:26.148Z,21.76
2022-08-23T08:19:26.111Z,21.96
2022-08-23T08:20:26.151Z,21.89
2022-08-23T08:21:26.092Z,21.93
2022-08-23T08:22:26.107Z,21.98
2022-08-23T08:23:26.086Z,22.06
2022-08-23T08:24:26.076Z,21.96
2022-08-23T08:25:26.106Z,21.88
2022-08-23T08:26:26.060Z,21.69
2022-08-23T08:27:26.047Z,21.57
2022-08-23T08:28:26.013Z,21.54
2022-08-23T08:29:25.998Z,21.64
2022-08-23T08:30:26.201Z,21.75
2022-08-23T08:31:27.342Z,21.82
2022-08-23T08:32:25.981Z,21.95
2022-08-23T08:33:30.860Z,21.93
2022-08-23T08:34:26.970Z,21.77
2022-08-23T08:35:25.997Z,21.70
2022-08-23T08:36:25.962Z,21.54
2022-08-23T08:37:25.909Z,21.45
2022-08-23T08:38:27.123Z,21.36
2022-08-23T08:39:25.897Z,21.29
2022-08-23T08:40:25.929Z,21.36
2022-08-23T08:41:25.904Z,21.39
2022-08-23T08:42:25.870Z,21.40
2022-08-23T08:43:25.850Z,21.43
2022-08-23T08:44:25.842Z,21.39
2022-08-23T08:45:26.411Z,21.42
2022-08-23T08:46:26.003Z,21.42
2022-08-23T08:47:25.796Z,21.48
2022-08-23T08:48:25.795Z,21.58
2022-08-23T08:49:25.777Z,21.62
2022-08-23T08:50:25.753Z,21.72
2022-08-23T08:51:25.812Z,21.77
2022-08-23T08:52:25.750Z,21.80
2022-08-23T08:53:25.733Z,21.75
2022-08-23T08:54:25.724Z,21.88
2022-08-23T08:55:25.703Z,21.98
2022-08-23T08:56:32.138Z,22.06
2022-08-23T08:57:27.754Z,21.95
2022-08-23T08:58:25.700Z,21.70
2022-08-23T08:59:25.661Z,21.62
2022-08-23T09:00:25.687Z,21.66
2022-08-23T09:01:25.785Z,21.73
2022-08-23T09:02:33.183Z,21.64
2022-08-23T09:03:26.663Z,21.57
2022-08-23T09:04:25.660Z,21.60
2022-08-23T09:05:25.596Z,21.64
2022-08-23T09:06:25.659Z,21.72
2022-08-23T09:07:30.519Z,21.67
2022-08-23T09:08:26.575Z,21.89
2022-08-23T09:09:25.570Z,22.00
2022-08-23T09:10:25.556Z,22.06
2022-08-23T09:11:25.565Z,22.23
2022-08-23T09:12:25.569Z,22.30
2022-08-23T09:13:25.539Z,22.39
2022-08-23T09:14:25.504Z,22.38
2022-08-23T09:15:25.467Z,22.39
2022-08-23T09:16:25.501Z,22.48
2022-08-23T09:17:25.468Z,22.30
2022-08-23T09:18:25.470Z,22.26
2022-08-23T09:19:25.446Z,22.20
2022-08-23T09:20:26.114Z,22.22
2022-08-23T09:21:28.384Z,22.15
2022-08-23T09:22:25.396Z,22.14
2022-08-23T09:23:25.410Z,22.13
2022-08-23T09:24:25.387Z,22.17
2022-08-23T09:25:25.410Z,22.20
2022-08-23T09:26:25.373Z,22.13
2022-08-23T09:27:25.376Z,21.89
2022-08-23T09:28:25.367Z,21.82
2022-08-23T09:29:25.317Z,21.76
2022-08-23T09:30:25.402Z,21.64
2022-08-23T09:31:25.320Z,21.60
2022-08-23T09:32:25.303Z,21.52
2022-08-23T09:33:26.303Z,21.54
2022-08-23T09:34:25.277Z,21.58
2022-08-23T09:35:25.303Z,21.58
2022-08-23T09:36:25.235Z,21.70
2022-08-23T09:37:25.243Z,21.77
2022-08-23T09:38:25.254Z,21.89
2022-08-23T09:39:30.678Z,21.96
2022-08-23T09:40:26.261Z,22.02
2022-08-23T09:41:25.207Z,22.07
2022-08-23T09:42:25.196Z,22.04
2022-08-23T09:43:25.154Z,21.96
2022-08-23T09:44:25.141Z,22.10
2022-08-23T09:45:26.496Z,22.08
2022-08-23T09:46:25.161Z,22.06
2022-08-23T09:47:25.130Z,22.14
2022-08-23T09:48:28.160Z,22.18
2022-08-23T09:49:26.112Z,22.22
2022-08-23T09:50:25.151Z,22.32
2022-08-23T09:51:25.295Z,22.39
2022-08-23T09:52:25.055Z,22.39
2022-08-23T09:53:25.067Z,22.39
2022-08-23T09:54:25.056Z,22.47
2022-08-23T09:55:25.075Z,22.43
2022-08-23T09:56:25.030Z,22.28
2022-08-23T09:57:25.036Z,22.28
2022-08-23T09:58:25.012Z,22.23
2022-08-23T09:59:26.442Z,22.08
2022-08-23T10:00:25.022Z,22.10
2022-08-23T10:01:25.022Z,22.18
2022-08-23T10:02:24.959Z,22.17
2022-08-23T10:03:24.940Z,22.30
2022-08-23T10:04:25.043Z,22.39
2022-08-23T10:05:24.964Z,22.47
2022-08-23T10:06:24.917Z,22.48
2022-08-23T10:07:25.911Z,22.63
2022-08-23T10:08:24.892Z,22.84
2022-08-23T10:09:24.889Z,22.90
2022-08-23T10:10:24.945Z,22.96
2022-08-23T10:11:24.861Z,22.99
2022-08-23T10:12:24.830Z,22.96
2022-08-23T10:13:24.802Z,22.98
2022-08-23T10:14:25.919Z,23.00
2022-08-23T10:15:24.856Z,23.05
2022-08-23T10:16:24.845Z,23.12
2022-08-23T10:17:24.790Z,23.08
2022-08-23T10:18:24.782Z,23.08
2022-08-23T10:19:24.773Z,22.73
2022-08-23T10:20:24.810Z,22.53
2022-08-23T10:21:24.734Z,22.41
2022-08-23T10:22:24.757Z,22.26
2022-08-23T10:23:24.722Z,22.23
2022-08-23T10:24:24.729Z,22.33
2022-08-23T10:25:24.758Z,22.45
2022-08-23T10:26:24.687Z,22.39
2022-08-23T10:27:24.706Z,22.47
2022-08-23T10:28:24.677Z,22.35
2022-08-23T10:29:24.667Z,22.48
2022-08-23T10:30:24.688Z,22.62
2022-08-23T10:31:24.652Z,22.70
2022-08-23T10:32:24.645Z,22.48
2022-08-23T10:33:24.598Z,22.43
2022-08-23T10:34:24.622Z,22.65
2022-08-23T10:35:24.656Z,22.78
2022-08-23T10:36:24.573Z,22.91
2022-08-23T10:37:24.578Z,23.00
2022-08-23T10:38:24.538Z,23.00
2022-08-23T10:39:24.558Z,23.08
2022-08-23T10:40:24.648Z,23.13
2022-08-23T10:41:24.504Z,23.00
2022-08-23T10:42:24.503Z,22.98
2022-08-23T10:43:24.524Z,22.90
2022-08-23T10:44:24.498Z,22.80
2022-08-23T10:45:24.515Z,22.81
2022-08-23T10:46:24.501Z,22.84
2022-08-23T10:47:24.444Z,22.85
2022-08-23T10:48:24.446Z,22.84
2022-08-23T10:49:24.430Z,22.90
2022-08-23T10:50:24.467Z,23.02
2022-08-23T10:51:31.267Z,23.08
2022-08-23T10:52:25.372Z,23.21
2022-08-23T10:53:24.353Z,23.21
2022-08-23T10:54:24.377Z,23.46
2022-08-23T10:55:24.408Z,23.66
2022-08-23T10:56:24.357Z,23.88
2022-08-23T10:57:24.337Z,23.93
2022-08-23T10:58:24.323Z,23.98
2022-08-23T10:59:24.349Z,23.84
2022-08-23T11:00:24.332Z,23.74
2022-08-23T11:01:24.319Z,23.51
2022-08-23T11:02:24.305Z,23.41
2022-08-23T11:03:28.682Z,23.47
2022-08-23T11:04:24.295Z,23.55
2022-08-23T11:05:24.310Z,23.63
2022-08-23T11:06:24.258Z,23.55
2022-08-23T11:07:24.244Z,23.39
2022-08-23T11:08:24.219Z,23.27
2022-08-23T11:09:25.871Z,23.23
2022-08-23T11:10:24.238Z,23.06
2022-08-23T11:11:24.159Z,23.06
2022-08-23T11:12:24.178Z,22.87
2022-08-23T11:13:24.178Z,22.69
2022-08-23T11:14:24.151Z,22.60
2022-08-23T11:15:24.196Z,22.65
2022-08-23T11:16:24.125Z,22.65
2022-08-23T11:17:24.124Z,22.60
2022-08-23T11:18:24.105Z,22.48
2022-08-23T11:19:24.083Z,22.44
2022-08-23T11:20:24.117Z,22.45
2022-08-23T11:21:24.053Z,22.45
2022-08-23T11:22:24.066Z,22.33
2022-08-23T11:23:24.046Z,22.25
2022-08-23T11:24:24.026Z,22.26
2022-08-23T11:25:24.098Z,22.30
2022-08-23T11:26:24.010Z,22.30
2022-08-23T11:27:24.017Z,22.30
2022-08-23T11:28:24.008Z,22.29
2022-08-23T11:29:24.008Z,22.38
2022-08-23T11:30:24.000Z,22.43
2022-08-23T11:31:23.985Z,22.50
2022-08-23T11:32:26.934Z,22.60
2022-08-23T11:33:24.947Z,22.66
2022-08-23T11:34:27.276Z,22.72
2022-08-23T11:35:24.965Z,22.72
2022-08-23T11:36:23.907Z,22.76
2022-08-23T11:37:23.891Z,22.69
2022-08-23T11:38:27.114Z,22.73
2022-08-23T11:39:25.533Z,22.70
2022-08-23T11:40:23.984Z,22.59
2022-08-23T11:41:23.836Z,22.63
2022-08-23T11:42:23.836Z,22.66
2022-08-23T11:43:23.813Z,22.65
2022-08-23T11:44:23.812Z,22.70
2022-08-23T11:45:23.857Z,22.75
2022-08-23T11:46:23.805Z,22.87
2022-08-23T11:47:23.794Z,22.80
2022-08-23T11:48:23.777Z,22.78
2022-08-23T11:49:23.741Z,22.73
2022-08-23T11:50:23.772Z,22.62
2022-08-23T11:51:23.721Z,22.63
2022-08-23T11:52:23.704Z,22.65
2022-08-23T11:53:23.731Z,22.81
2022-08-23T11:54:23.681Z,22.87
2022-08-23T11:55:24.301Z,22.98
2022-08-23T11:56:23.665Z,23.24
2022-08-23T11:57:23.657Z,23.56
2022-08-23T11:58:23.662Z,23.76
2022-08-23T11:59:23.814Z,23.78
2022-08-23T12:00:27.733Z,23.84
2022-08-23T12:01:24.624Z,23.98
2022-08-23T12:02:23.687Z,24.03
2022-08-23T12:03:23.709Z,24.18
2022-08-23T12:04:23.590Z,24.16
2022-08-23T12:05:23.640Z,24.02
2022-08-23T12:06:23.541Z,23.95
2022-08-23T12:07:23.532Z,23.95
2022-08-23T12:08:23.514Z,23.99
2022-08-23T12:09:23.539Z,23.98
2022-08-23T12:10:23.574Z,23.84
2022-08-23T12:11:23.532Z,23.91
2022-08-23T12:12:23.475Z,23.93
2022-08-23T12:13:23.478Z,23.87
2022-08-23T12:14:23.454Z,23.83
2022-08-23T12:15:23.513Z,23.76
2022-08-23T12:16:23.514Z,23.77
2022-08-23T12:17:23.447Z,23.80
2022-08-23T12:18:25.097Z,23.80
2022-08-23T12:19:23.411Z,23.84
2022-08-23T12:20:24.316Z,23.91
2022-08-23T12:21:23.385Z,23.92
2022-08-23T12:22:23.393Z,23.81
2022-08-23T12:23:23.369Z,23.83
2022-08-23T12:24:23.350Z,23.93
2022-08-23T12:25:23.391Z,24.01
2022-08-23T12:26:23.332Z,23.87
2022-08-23T12:27:23.325Z,23.92
2022-08-23T12:28:23.294Z,23.95
2022-08-23T12:29:23.304Z,23.93
2022-08-23T12:30:23.362Z,23.91
2022-08-23T12:31:23.341Z,23.86
2022-08-23T12:32:23.918Z,23.86
2022-08-23T12:33:23.262Z,23.83
2022-08-23T12:34:23.255Z,23.78
2022-08-23T12:35:23.271Z,23.69
2022-08-23T12:36:23.203Z,23.65
2022-08-23T12:37:23.190Z,23.47
2022-08-23T12:38:23.182Z,23.47
2022-08-23T12:39:23.221Z,23.54
2022-08-23T12:40:23.255Z,23.47
2022-08-23T12:41:23.154Z,23.58
2022-08-23T12:42:23.139Z,23.58
2022-08-23T12:43:23.184Z,23.51
2022-08-23T12:44:23.130Z,23.47
2022-08-23T12:45:23.158Z,23.41
2022-08-23T12:46:23.123Z,23.44
2022-08-23T12:47:23.079Z,23.39
2022-08-23T12:48:23.071Z,23.44
2022-08-23T12:49:23.084Z,23.34
2022-08-23T12:50:30.589Z,23.28
2022-08-23T12:51:24.041Z,23.25
2022-08-23T12:52:23.071Z,23.27